sensor_id;sensor_type;location;lat;lon;timestamp;temperature;humidity
34008;DHT22;41085;51.594;7.138;2022-07-18T00:00:31;25.50;70.40
34008;DHT22;41085;51.594;7.138;2022-07-18T00:04:31;25.50;70.30
34008;DHT22;41085;51.594;7.138;2022-07-18T00:08:32;25.40;70.80
34008;DHT22;41085;51.594;7.138;2022-07-18T00:12:33;25.40;71.20
34008;DHT22;41085;51.594;7.138;2022-07-18T00:16:34;25.60;74.40
34008;DHT22;41085;51.594;7.138;2022-07-18T00:20:34;25.40;70.80
34008;DHT22;41085;51.594;7.138;2022-07-18T00:24:35;25.50;70.40
34008;DHT22;41085;51.594;7.138;2022-07-18T00:28:38;25.50;71.00
34008;DHT22;41085;51.594;7.138;2022-07-18T00:32:38;25.40;70.30
34008;DHT22;41085;51.594;7.138;2022-07-18T00:36:39;25.50;70.40
34008;DHT22;41085;51.594;7.138;2022-07-18T00:40:39;25.40;70.70
34008;DHT22;41085;51.594;7.138;2022-07-18T00:44:40;25.50;71.10
34008;DHT22;41085;51.594;7.138;2022-07-18T00:48:44;25.50;73.00
34008;DHT22;41085;51.594;7.138;2022-07-18T00:52:45;25.70;72.70
34008;DHT22;41085;51.594;7.138;2022-07-18T00:56:48;25.30;70.80
34008;DHT22;41085;51.594;7.138;2022-07-18T01:00:51;25.40;70.70
34008;DHT22;41085;51.594;7.138;2022-07-18T01:05:20;25.40;70.70
34008;DHT22;41085;51.594;7.138;2022-07-18T01:09:23;24.40;71.70
34008;DHT22;41085;51.594;7.138;2022-07-18T01:13:24;26.50;72.60
34008;DHT22;41085;51.594;7.138;2022-07-18T01:17:24;23.80;70.70
34008;DHT22;41085;51.594;7.138;2022-07-18T01:21:25;25.50;71.30
34008;DHT22;41085;51.594;7.138;2022-07-18T01:25:27;25.30;71.40
34008;DHT22;41085;51.594;7.138;2022-07-18T01:29:28;25.40;70.40
34008;DHT22;41085;51.594;7.138;2022-07-18T01:33:31;25.40;70.30
34008;DHT22;41085;51.594;7.138;2022-07-18T01:37:41;25.40;70.30
34008;DHT22;41085;51.594;7.138;2022-07-18T01:42:12;27.80;72.80
34008;DHT22;41085;51.594;7.138;2022-07-18T01:46:15;25.40;70.10
34008;DHT22;41085;51.594;7.138;2022-07-18T01:50:16;25.60;71.40
34008;DHT22;41085;51.594;7.138;2022-07-18T01:54:21;25.30;70.60
34008;DHT22;41085;51.594;7.138;2022-07-18T01:58:22;25.30;71.50
34008;DHT22;41085;51.594;7.138;2022-07-18T02:02:34;25.50;72.30
34008;DHT22;41085;51.594;7.138;2022-07-18T02:06:35;25.70;73.40
34008;DHT22;41085;51.594;7.138;2022-07-18T02:10:36;25.30;72.90
34008;DHT22;41085;51.594;7.138;2022-07-18T02:14:37;25.30;70.90
34008;DHT22;41085;51.594;7.138;2022-07-18T02:18:37;25.40;71.20
34008;DHT22;41085;51.594;7.138;2022-07-18T02:22:38;25.30;70.50
34008;DHT22;41085;51.594;7.138;2022-07-18T02:26:38;25.40;70.30
34008;DHT22;41085;51.594;7.138;2022-07-18T02:30:39;25.40;70.40
34008;DHT22;41085;51.594;7.138;2022-07-18T02:34:40;25.40;70.40
34008;DHT22;41085;51.594;7.138;2022-07-18T02:38:40;25.40;71.50
34008;DHT22;41085;51.594;7.138;2022-07-18T02:42:41;25.30;71.90
34008;DHT22;41085;51.594;7.138;2022-07-18T02:46:42;25.70;72.70
34008;DHT22;41085;51.594;7.138;2022-07-18T02:50:43;25.30;71.60
34008;DHT22;41085;51.594;7.138;2022-07-18T02:54:43;25.40;71.00
34008;DHT22;41085;51.594;7.138;2022-07-18T02:58:44;25.60;71.60
34008;DHT22;41085;51.594;7.138;2022-07-18T03:02:45;25.40;71.50
34008;DHT22;41085;51.594;7.138;2022-07-18T03:06:46;25.30;70.90
34008;DHT22;41085;51.594;7.138;2022-07-18T03:10:47;25.30;70.60
34008;DHT22;41085;51.594;7.138;2022-07-18T03:14:47;25.40;71.80
34008;DHT22;41085;51.594;7.138;2022-07-18T03:18:48;25.50;70.90
34008;DHT22;41085;51.594;7.138;2022-07-18T03:22:49;25.30;70.60
34008;DHT22;41085;51.594;7.138;2022-07-18T03:26:50;25.30;70.10
34008;DHT22;41085;51.594;7.138;2022-07-18T03:30:51;25.30;70.20
34008;DHT22;41085;51.594;7.138;2022-07-18T03:34:52;25.30;70.10
34008;DHT22;41085;51.594;7.138;2022-07-18T03:38:52;25.30;70.40
34008;DHT22;41085;51.594;7.138;2022-07-18T03:42:53;25.30;70.10
34008;DHT22;41085;51.594;7.138;2022-07-18T03:46:54;25.30;70.10
34008;DHT22;41085;51.594;7.138;2022-07-18T03:50:54;25.40;70.10
34008;DHT22;41085;51.594;7.138;2022-07-18T03:54:55;25.30;70.00
34008;DHT22;41085;51.594;7.138;2022-07-18T03:58:56;25.30;70.00
34008;DHT22;41085;51.594;7.138;2022-07-18T04:02:56;25.30;70.10
34008;DHT22;41085;51.594;7.138;2022-07-18T04:06:57;25.30;70.00
34008;DHT22;41085;51.594;7.138;2022-07-18T04:11:00;25.30;70.00
34008;DHT22;41085;51.594;7.138;2022-07-18T04:15:01;25.30;70.00
34008;DHT22;41085;51.594;7.138;2022-07-18T04:19:04;25.30;70.00
34008;DHT22;41085;51.594;7.138;2022-07-18T04:23:07;25.30;70.00
34008;DHT22;41085;51.594;7.138;2022-07-18T04:27:10;25.40;70.10
34008;DHT22;41085;51.594;7.138;2022-07-18T04:31:11;25.30;70.00
34008;DHT22;41085;51.594;7.138;2022-07-18T04:35:27;25.30;70.00
34008;DHT22;41085;51.594;7.138;2022-07-18T04:39:27;25.30;70.10
34008;DHT22;41085;51.594;7.138;2022-07-18T04:43:28;25.50;70.30
34008;DHT22;41085;51.594;7.138;2022-07-18T04:47:28;25.30;70.10
34008;DHT22;41085;51.594;7.138;2022-07-18T04:51:29;25.30;70.10
34008;DHT22;41085;51.594;7.138;2022-07-18T04:55:30;25.30;70.20
34008;DHT22;41085;51.594;7.138;2022-07-18T04:59:31;25.50;70.50
34008;DHT22;41085;51.594;7.138;2022-07-18T05:03:31;25.30;70.60
34008;DHT22;41085;51.594;7.138;2022-07-18T05:07:32;25.30;70.10
34008;DHT22;41085;51.594;7.138;2022-07-18T05:11:38;25.30;70.30
34008;DHT22;41085;51.594;7.138;2022-07-18T05:15:43;25.30;70.70
34008;DHT22;41085;51.594;7.138;2022-07-18T05:19:43;25.30;70.80
34008;DHT22;41085;51.594;7.138;2022-07-18T05:23:45;25.30;70.20
34008;DHT22;41085;51.594;7.138;2022-07-18T05:27:48;25.30;70.30
34008;DHT22;41085;51.594;7.138;2022-07-18T05:31:49;25.30;69.90
34008;DHT22;41085;51.594;7.138;2022-07-18T05:35:50;25.30;70.20
34008;DHT22;41085;51.594;7.138;2022-07-18T05:39:51;25.30;70.10
34008;DHT22;41085;51.594;7.138;2022-07-18T05:43:51;25.30;70.10
34008;DHT22;41085;51.594;7.138;2022-07-18T05:47:53;25.30;70.00
34008;DHT22;41085;51.594;7.138;2022-07-18T05:51:54;25.30;69.90
34008;DHT22;41085;51.594;7.138;2022-07-18T05:55:54;25.40;70.60
34008;DHT22;41085;51.594;7.138;2022-07-18T05:59:55;25.40;70.00
34008;DHT22;41085;51.594;7.138;2022-07-18T06:03:56;25.50;70.60
34008;DHT22;41085;51.594;7.138;2022-07-18T06:08:06;25.30;70.50
34008;DHT22;41085;51.594;7.138;2022-07-18T06:12:07;25.30;70.10
34008;DHT22;41085;51.594;7.138;2022-07-18T06:16:12;25.30;70.00
34008;DHT22;41085;51.594;7.138;2022-07-18T06:20:24;25.40;71.30
34008;DHT22;41085;51.594;7.138;2022-07-18T06:24:26;25.50;69.90
34008;DHT22;41085;51.594;7.138;2022-07-18T06:28:27;25.30;69.80
34008;DHT22;41085;51.594;7.138;2022-07-18T06:32:31;25.30;70.00
34008;DHT22;41085;51.594;7.138;2022-07-18T06:36:32;25.40;70.10
34008;DHT22;41085;51.594;7.138;2022-07-18T06:40:40;25.40;70.00
34008;DHT22;41085;51.594;7.138;2022-07-18T06:44:41;25.40;70.00
34008;DHT22;41085;51.594;7.138;2022-07-18T06:48:42;25.40;69.80
34008;DHT22;41085;51.594;7.138;2022-07-18T06:52:44;25.40;70.10
34008;DHT22;41085;51.594;7.138;2022-07-18T06:57:05;25.40;69.80
34008;DHT22;41085;51.594;7.138;2022-07-18T07:01:18;25.40;69.90
34008;DHT22;41085;51.594;7.138;2022-07-18T07:05:21;25.40;69.80
34008;DHT22;41085;51.594;7.138;2022-07-18T07:09:51;25.40;69.80
34008;DHT22;41085;51.594;7.138;2022-07-18T07:18:32;25.40;69.80
34008;DHT22;41085;51.594;7.138;2022-07-18T07:27:23;25.40;69.80
34008;DHT22;41085;51.594;7.138;2022-07-18T07:36:31;25.40;69.90
34008;DHT22;41085;51.594;7.138;2022-07-18T07:40:35;25.40;69.80
34008;DHT22;41085;51.594;7.138;2022-07-18T07:44:38;25.50;70.10
34008;DHT22;41085;51.594;7.138;2022-07-18T07:49:16;25.50;70.00
34008;DHT22;41085;51.594;7.138;2022-07-18T07:53:17;25.50;69.80
34008;DHT22;41085;51.594;7.138;2022-07-18T07:57:18;25.50;70.00
34008;DHT22;41085;51.594;7.138;2022-07-18T08:01:58;25.50;69.80
34008;DHT22;41085;51.594;7.138;2022-07-18T08:05:59;25.50;69.80
34008;DHT22;41085;51.594;7.138;2022-07-18T08:10:00;25.50;70.40
34008;DHT22;41085;51.594;7.138;2022-07-18T08:14:16;25.50;69.80
34008;DHT22;41085;51.594;7.138;2022-07-18T08:18:18;25.50;69.70
34008;DHT22;41085;51.594;7.138;2022-07-18T08:22:19;25.50;69.90
34008;DHT22;41085;51.594;7.138;2022-07-18T08:26:21;25.50;69.90
34008;DHT22;41085;51.594;7.138;2022-07-18T08:30:30;25.50;69.70
34008;DHT22;41085;51.594;7.138;2022-07-18T08:34:31;25.50;69.70
34008;DHT22;41085;51.594;7.138;2022-07-18T08:38:31;25.50;70.00
34008;DHT22;41085;51.594;7.138;2022-07-18T08:42:33;25.50;69.80
34008;DHT22;41085;51.594;7.138;2022-07-18T08:46:35;25.50;69.80
34008;DHT22;41085;51.594;7.138;2022-07-18T08:50:36;25.60;70.60
34008;DHT22;41085;51.594;7.138;2022-07-18T08:54:37;25.50;69.80
34008;DHT22;41085;51.594;7.138;2022-07-18T08:58:37;25.50;70.30
34008;DHT22;41085;51.594;7.138;2022-07-18T09:02:38;25.50;70.40
34008;DHT22;41085;51.594;7.138;2022-07-18T09:06:47;25.60;70.80
34008;DHT22;41085;51.594;7.138;2022-07-18T09:10:54;25.60;69.90
34008;DHT22;41085;51.594;7.138;2022-07-18T09:14:55;25.50;69.60
34008;DHT22;41085;51.594;7.138;2022-07-18T09:18:55;25.50;69.80
34008;DHT22;41085;51.594;7.138;2022-07-18T09:22:56;25.50;70.50
34008;DHT22;41085;51.594;7.138;2022-07-18T09:26:57;25.70;70.30
34008;DHT22;41085;51.594;7.138;2022-07-18T09:30:58;25.60;69.80
34008;DHT22;41085;51.594;7.138;2022-07-18T09:35:13;25.60;70.10
34008;DHT22;41085;51.594;7.138;2022-07-18T09:39:20;25.60;69.90
34008;DHT22;41085;51.594;7.138;2022-07-18T09:43:23;25.60;70.20
34008;DHT22;41085;51.594;7.138;2022-07-18T09:47:24;25.60;69.70
34008;DHT22;41085;51.594;7.138;2022-07-18T09:51:25;25.60;69.90
34008;DHT22;41085;51.594;7.138;2022-07-18T09:55:25;25.60;70.10
34008;DHT22;41085;51.594;7.138;2022-07-18T09:59:26;25.60;69.90
34008;DHT22;41085;51.594;7.138;2022-07-18T10:03:27;25.60;69.80
34008;DHT22;41085;51.594;7.138;2022-07-18T10:07:28;25.60;69.60
34008;DHT22;41085;51.594;7.138;2022-07-18T10:11:29;25.60;69.80
34008;DHT22;41085;51.594;7.138;2022-07-18T10:15:32;25.70;69.80
34008;DHT22;41085;51.594;7.138;2022-07-18T10:19:34;25.70;69.80
34008;DHT22;41085;51.594;7.138;2022-07-18T10:23:46;25.70;69.70
34008;DHT22;41085;51.594;7.138;2022-07-18T10:27:49;25.70;70.30
34008;DHT22;41085;51.594;7.138;2022-07-18T10:32:03;25.60;69.60
34008;DHT22;41085;51.594;7.138;2022-07-18T10:36:06;25.70;69.70
34008;DHT22;41085;51.594;7.138;2022-07-18T10:40:30;25.70;69.80
34008;DHT22;41085;51.594;7.138;2022-07-18T10:44:31;25.70;70.10
34008;DHT22;41085;51.594;7.138;2022-07-18T11:00:38;25.70;69.70
34008;DHT22;41085;51.594;7.138;2022-07-18T11:04:40;25.70;69.50
34008;DHT22;41085;51.594;7.138;2022-07-18T11:08:41;25.70;69.70
34008;DHT22;41085;51.594;7.138;2022-07-18T11:12:41;25.70;70.10
34008;DHT22;41085;51.594;7.138;2022-07-18T11:17:05;25.70;69.80
34008;DHT22;41085;51.594;7.138;2022-07-18T11:21:29;25.70;69.40
34008;DHT22;41085;51.594;7.138;2022-07-18T11:25:31;25.70;69.50
34008;DHT22;41085;51.594;7.138;2022-07-18T11:29:40;25.70;70.10
34008;DHT22;41085;51.594;7.138;2022-07-18T11:33:45;25.70;69.70
34008;DHT22;41085;51.594;7.138;2022-07-18T11:37:50;25.70;69.60
34008;DHT22;41085;51.594;7.138;2022-07-18T11:41:51;25.70;69.70
34008;DHT22;41085;51.594;7.138;2022-07-18T11:46:00;25.70;69.60
34008;DHT22;41085;51.594;7.138;2022-07-18T11:50:01;25.80;69.60
34008;DHT22;41085;51.594;7.138;2022-07-18T11:54:01;25.80;70.50
34008;DHT22;41085;51.594;7.138;2022-07-18T11:58:07;25.70;69.70
34008;DHT22;41085;51.594;7.138;2022-07-18T12:02:08;25.70;69.50
34008;DHT22;41085;51.594;7.138;2022-07-18T12:06:15;25.80;69.70
34008;DHT22;41085;51.594;7.138;2022-07-18T12:10:16;25.70;69.40
34008;DHT22;41085;51.594;7.138;2022-07-18T12:14:17;25.80;70.50
34008;DHT22;41085;51.594;7.138;2022-07-18T12:18:28;25.80;69.80
34008;DHT22;41085;51.594;7.138;2022-07-18T12:22:29;25.80;69.60
34008;DHT22;41085;51.594;7.138;2022-07-18T12:26:31;25.80;70.20
34008;DHT22;41085;51.594;7.138;2022-07-18T12:30:34;25.80;69.60
34008;DHT22;41085;51.594;7.138;2022-07-18T12:34:35;25.80;69.70
34008;DHT22;41085;51.594;7.138;2022-07-18T12:38:36;25.80;70.20
34008;DHT22;41085;51.594;7.138;2022-07-18T12:42:40;25.80;70.10
34008;DHT22;41085;51.594;7.138;2022-07-18T12:46:41;25.80;69.70
34008;DHT22;41085;51.594;7.138;2022-07-18T12:50:46;25.80;70.00
34008;DHT22;41085;51.594;7.138;2022-07-18T16:25:43;26.10;69.60
34008;DHT22;41085;51.594;7.138;2022-07-18T16:35:07;26.10;69.60
34008;DHT22;41085;51.594;7.138;2022-07-18T16:49:51;26.10;69.50
34008;DHT22;41085;51.594;7.138;2022-07-18T16:54:53;26.20;69.60
34008;DHT22;41085;51.594;7.138;2022-07-18T17:14:27;26.30;69.70
34008;DHT22;41085;51.594;7.138;2022-07-18T17:18:48;26.30;69.80
34008;DHT22;41085;51.594;7.138;2022-07-18T17:22:56;26.30;69.80
34008;DHT22;41085;51.594;7.138;2022-07-18T17:27:44;26.20;69.70
34008;DHT22;41085;51.594;7.138;2022-07-18T17:32:19;26.30;69.60
34008;DHT22;41085;51.594;7.138;2022-07-18T17:37:36;26.30;69.60
34008;DHT22;41085;51.594;7.138;2022-07-18T17:42:19;26.40;69.70
34008;DHT22;41085;51.594;7.138;2022-07-18T17:46:30;26.40;69.80
34008;DHT22;41085;51.594;7.138;2022-07-18T17:50:50;26.40;70.00
34008;DHT22;41085;51.594;7.138;2022-07-18T17:54:51;26.40;70.10
34008;DHT22;41085;51.594;7.138;2022-07-18T17:58:52;26.40;69.80
34008;DHT22;41085;51.594;7.138;2022-07-18T18:02:52;26.40;69.90
34008;DHT22;41085;51.594;7.138;2022-07-18T18:06:54;26.40;70.00
34008;DHT22;41085;51.594;7.138;2022-07-18T18:10:54;26.40;69.90
34008;DHT22;41085;51.594;7.138;2022-07-18T18:15:02;26.40;70.00
34008;DHT22;41085;51.594;7.138;2022-07-18T18:19:03;26.40;69.80
34008;DHT22;41085;51.594;7.138;2022-07-18T18:23:04;26.40;70.30
34008;DHT22;41085;51.594;7.138;2022-07-18T18:27:04;26.40;69.90
34008;DHT22;41085;51.594;7.138;2022-07-18T18:31:05;26.40;70.30
34008;DHT22;41085;51.594;7.138;2022-07-18T18:35:08;26.40;70.40
34008;DHT22;41085;51.594;7.138;2022-07-18T18:39:09;26.40;69.90
34008;DHT22;41085;51.594;7.138;2022-07-18T18:43:09;26.40;69.90
34008;DHT22;41085;51.594;7.138;2022-07-18T18:47:10;26.40;70.00
34008;DHT22;41085;51.594;7.138;2022-07-18T18:51:11;26.40;70.30
34008;DHT22;41085;51.594;7.138;2022-07-18T18:55:12;26.40;71.70
34008;DHT22;41085;51.594;7.138;2022-07-18T18:59:14;26.30;71.30
34008;DHT22;41085;51.594;7.138;2022-07-18T19:03:16;26.60;71.50
34008;DHT22;41085;51.594;7.138;2022-07-18T19:07:17;26.30;71.00
34008;DHT22;41085;51.594;7.138;2022-07-18T19:11:17;26.40;70.30
34008;DHT22;41085;51.594;7.138;2022-07-18T19:15:18;26.30;70.10
34008;DHT22;41085;51.594;7.138;2022-07-18T19:19:18;26.40;70.20
34008;DHT22;41085;51.594;7.138;2022-07-18T19:23:19;26.40;70.90
34008;DHT22;41085;51.594;7.138;2022-07-18T19:27:20;26.40;70.80
34008;DHT22;41085;51.594;7.138;2022-07-18T19:31:20;26.40;70.30
34008;DHT22;41085;51.594;7.138;2022-07-18T19:35:21;26.40;70.80
34008;DHT22;41085;51.594;7.138;2022-07-18T19:39:22;26.40;70.20
34008;DHT22;41085;51.594;7.138;2022-07-18T19:43:23;26.30;70.10
34008;DHT22;41085;51.594;7.138;2022-07-18T19:47:24;26.40;70.20
34008;DHT22;41085;51.594;7.138;2022-07-18T19:51:25;26.40;70.10
34008;DHT22;41085;51.594;7.138;2022-07-18T19:55:26;26.40;70.20
34008;DHT22;41085;51.594;7.138;2022-07-18T19:59:27;26.40;70.00
34008;DHT22;41085;51.594;7.138;2022-07-18T20:03:28;26.30;70.40
34008;DHT22;41085;51.594;7.138;2022-07-18T20:07:28;26.40;70.30
34008;DHT22;41085;51.594;7.138;2022-07-18T20:11:29;26.30;70.10
34008;DHT22;41085;51.594;7.138;2022-07-18T20:15:30;26.30;70.40
34008;DHT22;41085;51.594;7.138;2022-07-18T20:19:32;26.40;71.00
34008;DHT22;41085;51.594;7.138;2022-07-18T20:23:32;26.30;70.10
34008;DHT22;41085;51.594;7.138;2022-07-18T20:27:33;26.30;70.10
34008;DHT22;41085;51.594;7.138;2022-07-18T20:31:33;26.40;70.10
34008;DHT22;41085;51.594;7.138;2022-07-18T20:35:34;26.30;70.10
34008;DHT22;41085;51.594;7.138;2022-07-18T20:39:36;26.40;70.20
34008;DHT22;41085;51.594;7.138;2022-07-18T20:43:37;26.40;70.20
34008;DHT22;41085;51.594;7.138;2022-07-18T20:47:38;26.40;70.20
34008;DHT22;41085;51.594;7.138;2022-07-18T20:51:39;26.30;70.30
34008;DHT22;41085;51.594;7.138;2022-07-18T20:55:39;26.40;70.20
34008;DHT22;41085;51.594;7.138;2022-07-18T20:59:40;26.40;70.30
34008;DHT22;41085;51.594;7.138;2022-07-18T21:03:41;26.30;70.50
34008;DHT22;41085;51.594;7.138;2022-07-18T21:07:41;26.30;70.50
34008;DHT22;41085;51.594;7.138;2022-07-18T21:11:42;26.30;70.40
34008;DHT22;41085;51.594;7.138;2022-07-18T21:15:43;26.40;70.60
34008;DHT22;41085;51.594;7.138;2022-07-18T21:19:43;26.30;70.30
34008;DHT22;41085;51.594;7.138;2022-07-18T21:23:45;26.40;70.40
34008;DHT22;41085;51.594;7.138;2022-07-18T21:27:46;26.30;70.20
34008;DHT22;41085;51.594;7.138;2022-07-18T21:31:46;26.30;70.20
34008;DHT22;41085;51.594;7.138;2022-07-18T21:35:47;26.40;70.60
34008;DHT22;41085;51.594;7.138;2022-07-18T21:39:50;26.30;70.40
34008;DHT22;41085;51.594;7.138;2022-07-18T21:43:51;26.30;70.70
34008;DHT22;41085;51.594;7.138;2022-07-18T21:47:51;26.40;72.30
34008;DHT22;41085;51.594;7.138;2022-07-18T21:51:53;26.30;71.30
34008;DHT22;41085;51.594;7.138;2022-07-18T21:56:02;26.30;70.40
34008;DHT22;41085;51.594;7.138;2022-07-18T22:00:10;26.30;70.70
34008;DHT22;41085;51.594;7.138;2022-07-18T22:04:29;26.30;71.30
34008;DHT22;41085;51.594;7.138;2022-07-18T22:08:50;26.30;71.40
34008;DHT22;41085;51.594;7.138;2022-07-18T22:12:52;26.30;71.60
34008;DHT22;41085;51.594;7.138;2022-07-18T22:16:56;25.80;72.30
34008;DHT22;41085;51.594;7.138;2022-07-18T22:20:56;26.30;73.10
34008;DHT22;41085;51.594;7.138;2022-07-18T22:24:57;26.60;74.00
34008;DHT22;41085;51.594;7.138;2022-07-18T22:29:01;26.30;72.20
34008;DHT22;41085;51.594;7.138;2022-07-18T22:33:03;26.30;71.40
34008;DHT22;41085;51.594;7.138;2022-07-18T22:37:03;26.30;71.10
34008;DHT22;41085;51.594;7.138;2022-07-18T22:41:05;26.40;70.70
34008;DHT22;41085;51.594;7.138;2022-07-18T23:10:22;27.70;71.60
34008;DHT22;41085;51.594;7.138;2022-07-18T23:15:18;26.40;70.60
34008;DHT22;41085;51.594;7.138;2022-07-18T23:20:44;26.30;70.50
34008;DHT22;41085;51.594;7.138;2022-07-18T23:30:21;26.40;70.60
34008;DHT22;41085;51.594;7.138;2022-07-18T23:34:22;26.30;72.40
34008;DHT22;41085;51.594;7.138;2022-07-18T23:38:22;26.30;71.40
34008;DHT22;41085;51.594;7.138;2022-07-18T23:42:23;26.30;70.70
34008;DHT22;41085;51.594;7.138;2022-07-18T23:46:24;26.30;71.40
34008;DHT22;41085;51.594;7.138;2022-07-18T23:50:25;26.30;70.60
34008;DHT22;41085;51.594;7.138;2022-07-18T23:54:26;26.30;70.60
34008;DHT22;41085;51.594;7.138;2022-07-18T23:58:27;26.30;70.60
